Time;durP1;ratioP1;P1;durP2;ratioP2;P2;SDS_P1;SDS_P2;PMS_P1;PMS_P2;Temp;Humidity;BMP_temperature;BMP_pressure;BME280_temperature;BME280_humidity;BME280_pressure;Samples;Min_cycle;Max_cycle;Signal;HPM_P1;HPM_P2
2020/12/16 00:00:01;;;;;;;15.90;10.00;;;;;;;8.63;84.70;100874.94;5056795;28;20057;-63
2020/12/16 00:02:31;;;;;;;20.52;11.23;;;;;;;8.59;84.80;100871.19;5055079;28;20053;-63
2020/12/16 00:09:35;;;;;;;28.05;12.30;;;;;;;8.60;85.05;100882.94;5054702;28;20049;-62
2020/12/16 00:12:02;;;;;;;22.25;11.85;;;;;;;8.76;85.02;100881.63;5054468;28;20056;-63
2020/12/16 00:14:29;;;;;;;22.92;13.07;;;;;;;8.86;84.18;100878.72;5053901;28;20393;-61
2020/12/16 00:16:55;;;;;;;25.52;12.68;;;;;;;8.69;84.36;100892.16;5053997;28;20049;-64
2020/12/16 00:19:22;;;;;;;23.08;11.73;;;;;;;8.87;84.01;100888.59;5053827;28;20055;-62
2020/12/16 00:21:49;;;;;;;20.40;12.13;;;;;;;8.87;84.06;100886.66;5053803;28;20045;-61
2020/12/16 00:24:16;;;;;;;22.15;13.18;;;;;;;8.88;83.72;100885.56;5054212;28;20048;-62
2020/12/16 00:26:43;;;;;;;24.90;13.10;;;;;;;8.96;83.30;100890.38;5019661;28;20045;-63
2020/12/16 00:29:11;;;;;;;21.23;13.25;;;;;;;8.80;84.07;100894.44;5053602;28;20053;-61
2020/12/16 00:31:38;;;;;;;21.50;13.52;;;;;;;8.88;83.81;100890.22;5036033;28;20052;-64
2020/12/16 00:34:06;;;;;;;23.90;14.20;;;;;;;8.98;83.25;100895.56;5053911;28;20064;-64
2020/12/16 00:36:40;;;;;;;26.05;13.60;;;;;;;9.02;82.92;100893.84;5053477;28;20056;-63
2020/12/16 00:39:09;;;;;;;21.10;13.50;;;;;;;9.05;83.13;100890.50;5053757;28;20053;-64
2020/12/16 00:41:37;;;;;;;21.45;13.35;;;;;;;9.01;83.17;100898.53;5053719;28;20053;-63
2020/12/16 00:44:06;;;;;;;25.08;14.02;;;;;;;9.07;82.84;100888.28;5068968;28;20057;-62
2020/12/16 00:46:33;;;;;;;26.33;14.35;;;;;;;9.18;82.94;100892.50;5036087;28;20045;-62
2020/12/16 00:49:02;;;;;;;25.50;14.07;;;;;;;9.19;82.65;100885.88;5035954;28;20068;-63
2020/12/16 00:51:28;;;;;;;25.90;14.13;;;;;;;9.20;82.72;100889.44;5053498;28;20053;-65
2020/12/16 00:53:56;;;;;;;22.13;13.43;;;;;;;9.15;82.77;100890.38;5035532;28;20064;-62
2020/12/16 00:56:24;;;;;;;28.45;17.05;;;;;;;9.05;83.69;100882.25;5036368;28;20048;-64
2020/12/16 00:58:51;;;;;;;24.65;16.38;;;;;;;8.92;84.39;100889.34;5053239;28;20527;-65
2020/12/16 01:01:19;;;;;;;33.35;22.58;;;;;;;8.97;84.13;100881.03;5068467;28;20396;-60
2020/12/16 01:03:48;;;;;;;26.27;15.85;;;;;;;9.15;83.67;100879.38;5019260;28;20056;-63
2020/12/16 01:06:15;;;;;;;23.50;13.90;;;;;;;9.24;83.58;100876.75;5035614;28;20052;-62
2020/12/16 01:08:42;;;;;;;25.20;14.80;;;;;;;9.12;83.59;100885.44;5052804;28;20049;-65
2020/12/16 01:11:11;;;;;;;25.70;14.38;;;;;;;8.90;84.18;100874.28;5067876;28;20044;-64
2020/12/16 01:13:38;;;;;;;24.90;14.35;;;;;;;8.98;84.25;100868.91;5034821;28;20049;-61
2020/12/16 01:16:11;;;;;;;25.15;14.82;;;;;;;9.13;83.67;100876.09;5034849;28;20499;-63
2020/12/16 01:18:40;;;;;;;30.23;15.00;;;;;;;9.19;83.44;100869.38;5035130;28;20070;-63
2020/12/16 01:21:11;;;;;;;24.17;13.77;;;;;;;9.09;83.67;100872.31;5034742;28;20056;-61
2020/12/16 01:23:46;;;;;;;26.35;14.65;;;;;;;9.09;83.98;100877.81;5035023;28;20045;-62
2020/12/16 01:26:15;;;;;;;24.85;13.18;;;;;;;9.04;84.39;100881.47;5034855;28;20045;-63
2020/12/16 01:28:51;;;;;;;23.63;12.68;;;;;;;9.33;83.39;100886.75;5067929;28;20053;-62
2020/12/16 01:31:18;;;;;;;22.42;13.85;;;;;;;9.18;83.54;100883.44;5034550;28;20056;-63
2020/12/16 01:33:46;;;;;;;23.38;13.55;;;;;;;9.16;83.43;100874.66;5036729;28;20496;-61
2020/12/16 01:36:31;;;;;;;25.88;13.70;;;;;;;8.96;84.40;100868.38;5068507;28;20052;-60
2020/12/16 01:38:58;;;;;;;29.92;14.25;;;;;;;8.86;84.86;100867.72;5052895;28;20056;-61
2020/12/16 01:41:25;;;;;;;27.00;14.55;;;;;;;8.85;85.46;100877.91;5035151;28;20048;-60
2020/12/16 01:43:52;;;;;;;22.30;13.93;;;;;;;8.95;85.38;100877.75;5035040;28;20051;-63
2020/12/16 01:46:23;;;;;;;30.92;15.90;;;;;;;8.87;84.81;100874.88;5052916;28;20045;-63
2020/12/16 01:48:51;;;;;;;29.17;15.02;;;;;;;8.74;85.44;100878.34;5052776;28;20060;-61
2020/12/16 01:51:20;;;;;;;24.55;14.63;;;;;;;8.92;85.93;100875.63;5034140;28;20064;-62
2020/12/16 01:53:53;;;;;;;30.15;14.20;;;;;;;8.71;85.75;100871.53;5033121;28;20053;-66
2020/12/16 01:56:23;;;;;;;28.08;15.68;;;;;;;8.59;87.24;100870.34;5067751;28;20045;-62
2020/12/16 01:59:13;;;;;;;35.63;16.48;;;;;;;8.80;86.14;100874.44;5065165;28;20049;-65
2020/12/16 02:01:47;;;;;;;29.77;15.95;;;;;;;8.73;85.59;100872.06;5034795;28;20056;-64
2020/12/16 02:04:19;;;;;;;29.98;17.23;;;;;;;8.89;85.23;100876.19;5034068;28;20125;-64
2020/12/16 02:06:49;;;;;;;27.70;15.75;;;;;;;8.82;85.46;100888.69;5051343;28;20053;-65
2020/12/16 02:09:16;;;;;;;28.33;15.82;;;;;;;8.68;86.70;100898.78;5051718;28;20049;-65
2020/12/16 02:11:54;;;;;;;24.83;15.63;;;;;;;8.46;87.27;100899.34;5049220;28;20061;-65
2020/12/16 02:14:25;;;;;;;30.42;15.55;;;;;;;8.77;86.95;100906.03;5034710;28;20049;-65
2020/12/16 02:16:54;;;;;;;23.33;14.43;;;;;;;9.08;84.56;100898.16;5052692;28;20492;-61
2020/12/16 02:19:22;;;;;;;27.30;14.80;;;;;;;8.75;85.93;100900.03;5034978;28;20045;-65
2020/12/16 02:22:05;;;;;;;28.17;15.20;;;;;;;8.75;86.76;100902.78;5048988;28;20060;-63
2020/12/16 02:24:33;;;;;;;27.13;15.25;;;;;;;8.93;86.43;100903.88;5037909;28;20053;-63
2020/12/16 02:27:01;;;;;;;26.15;14.57;;;;;;;8.74;86.29;100905.81;5055859;28;20048;-62
2020/12/16 02:29:28;;;;;;;27.73;16.00;;;;;;;8.68;86.47;100902.31;5038781;28;20049;-62
2020/12/16 02:32:00;;;;;;;25.35;14.80;;;;;;;8.80;86.53;100891.69;5022812;28;20057;-63
2020/12/16 02:34:27;;;;;;;26.85;14.43;;;;;;;8.83;85.99;100887.56;5071776;28;20045;-62
2020/12/16 02:36:54;;;;;;;22.13;13.80;;;;;;;8.84;85.42;100881.75;5056026;28;20049;-62
2020/12/16 02:39:38;;;;;;;38.72;15.23;;;;;;;8.67;86.19;100880.66;5055232;28;20049;-61
2020/12/16 02:42:13;;;;;;;25.88;15.75;;;;;;;8.63;86.70;100883.19;5056086;28;20059;-62
2020/12/16 02:44:41;;;;;;;25.65;14.13;;;;;;;8.42;87.47;100890.06;5039380;28;20412;-62
2020/12/16 02:47:23;;;;;;;26.45;14.25;;;;;;;8.63;86.93;100883.19;5071348;28;20044;-61
2020/12/16 02:49:51;;;;;;;21.83;13.00;;;;;;;8.77;86.00;100888.78;5055761;28;20053;-63
2020/12/16 02:52:19;;;;;;;24.42;13.95;;;;;;;8.67;86.25;100889.72;5038287;28;20496;-62
2020/12/16 02:54:46;;;;;;;22.77;13.35;;;;;;;8.53;87.15;100893.47;5038008;28;20064;-64
2020/12/16 02:57:35;;;;;;;22.27;13.27;;;;;;;8.55;87.15;100894.00;5057680;28;20052;-62
2020/12/16 03:00:07;;;;;;;22.00;13.18;;;;;;;8.66;87.03;100887.28;5037490;28;20472;-61
2020/12/16 03:02:54;;;;;;;25.27;13.13;;;;;;;8.58;86.90;100891.50;5055067;28;20460;-61
2020/12/16 03:05:38;;;;;;;19.92;12.77;;;;;;;8.39;87.79;100892.56;5037119;28;20056;-61
2020/12/16 03:08:10;;;;;;;20.58;11.95;;;;;;;8.31;87.65;100893.25;5055861;28;20049;-62
2020/12/16 03:10:44;;;;;;;19.00;11.18;;;;;;;8.46;87.72;100899.34;5037390;28;20424;-61
2020/12/16 03:13:12;;;;;;;22.67;12.25;;;;;;;8.50;86.73;100894.09;5037403;28;20049;-61
2020/12/16 03:15:38;;;;;;;23.95;12.48;;;;;;;8.60;85.90;100899.41;5037195;28;20056;-62
2020/12/16 03:18:05;;;;;;;22.67;12.00;;;;;;;8.41;86.65;100895.84;5056040;28;20500;-62
2020/12/16 03:20:33;;;;;;;20.13;12.20;;;;;;;8.45;86.85;100900.47;5055047;28;20048;-64
2020/12/16 03:23:01;;;;;;;20.70;11.77;;;;;;;8.07;88.25;100901.47;5054791;28;20049;-63
2020/12/16 03:26:04;;;;;;;19.42;11.00;;;;;;;8.09;88.29;100898.44;5055533;28;20045;-63
2020/12/16 03:28:52;;;;;;;21.95;12.27;;;;;;;8.26;87.87;100898.78;5037128;28;20049;-64
2020/12/16 03:31:38;;;;;;;19.35;11.35;;;;;;;8.26;88.12;100888.66;5054965;28;20053;-63
2020/12/16 03:38:52;;;;;;;19.60;11.55;;;;;;;8.31;87.05;100895.97;5070065;28;20049;-66
2020/12/16 03:41:19;;;;;;;17.77;10.93;;;;;;;8.33;87.03;100900.09;5037384;28;20045;-65
2020/12/16 03:43:53;;;;;;;20.27;11.23;;;;;;;8.08;87.74;100897.59;5036748;28;20049;-62
2020/12/16 03:46:20;;;;;;;19.70;11.18;;;;;;;8.15;88.61;100889.84;5037063;28;20056;-63
2020/12/16 03:53:28;;;;;;;21.17;11.63;;;;;;;8.25;88.05;100895.22;5054728;28;20045;-63
2020/12/16 03:56:17;;;;;;;18.38;10.73;;;;;;;8.32;86.98;100881.97;5036766;28;20767;-61
2020/12/16 03:59:04;;;;;;;19.17;12.02;;;;;;;8.08;87.92;100889.38;5043660;28;20408;-62
2020/12/16 04:01:53;;;;;;;21.00;12.45;;;;;;;7.89;88.82;100896.72;5054354;28;20045;-63
2020/12/16 04:04:20;;;;;;;21.42;12.02;;;;;;;8.02;88.62;100895.22;5036119;28;20449;-63
2020/12/16 04:06:59;;;;;;;21.02;11.95;;;;;;;8.12;87.98;100882.19;5069539;28;20396;-62
2020/12/16 04:09:30;;;;;;;25.05;12.07;;;;;;;8.15;87.54;100884.34;5036869;28;20045;-64
2020/12/16 04:11:59;;;;;;;20.47;12.33;;;;;;;7.97;87.61;100874.13;5069862;28;20057;-65
2020/12/16 04:14:33;;;;;;;23.00;12.20;;;;;;;8.22;87.87;100871.09;5053858;28;20057;-67
2020/12/16 04:17:03;;;;;;;20.80;11.50;;;;;;;8.10;87.43;100876.19;5036599;28;20405;-62
2020/12/16 04:20:04;;;;;;;19.08;11.30;;;;;;;8.16;87.33;100882.44;5036116;28;20057;-65
2020/12/16 04:22:34;;;;;;;19.73;11.40;;;;;;;8.21;87.86;100877.66;5036047;28;20071;-61
2020/12/16 04:25:04;;;;;;;19.43;11.80;;;;;;;8.27;87.09;100876.53;5036193;28;20049;-63
2020/12/16 04:27:33;;;;;;;19.77;11.65;;;;;;;8.10;87.56;100870.69;5043522;28;20307;-63
2020/12/16 04:30:03;;;;;;;20.63;12.45;;;;;;;8.15;87.98;100869.81;5069027;28;20045;-64
2020/12/16 04:32:35;;;;;;;22.85;12.30;;;;;;;8.29;87.98;100868.84;5054108;28;20049;-66
2020/12/16 04:35:02;;;;;;;26.08;12.63;;;;;;;8.17;87.82;100876.66;5035519;28;20512;-62
2020/12/16 04:37:30;;;;;;;23.70;13.23;;;;;;;8.07;88.46;100865.81;5036109;28;20053;-62
2020/12/16 04:40:00;;;;;;;21.95;12.40;;;;;;;8.20;88.12;100877.97;5036147;28;20480;-64
2020/12/16 04:42:28;;;;;;;21.80;12.60;;;;;;;8.07;88.20;100882.28;5035638;28;20480;-62
2020/12/16 04:44:56;;;;;;;25.25;13.70;;;;;;;8.19;88.03;100879.91;5036097;28;20065;-62
2020/12/16 04:47:29;;;;;;;24.27;13.30;;;;;;;8.17;87.59;100882.13;5051866;28;20049;-65
2020/12/16 04:50:06;;;;;;;19.55;12.32;;;;;;;8.32;87.21;100879.22;5050942;28;20045;-62
2020/12/16 04:52:47;;;;;;;19.75;12.40;;;;;;;8.06;88.43;100877.03;5035262;28;20056;-64
2020/12/16 04:55:19;;;;;;;21.60;12.00;;;;;;;8.28;88.11;100869.94;5035003;28;20443;-64
2020/12/16 04:58:02;;;;;;;24.90;12.93;;;;;;;8.15;87.88;100878.88;5035623;28;20057;-65
2020/12/16 05:00:31;;;;;;;21.73;12.73;;;;;;;8.18;87.98;100881.00;5035878;28;20052;-66
2020/12/16 05:03:24;;;;;;;26.02;13.40;;;;;;;8.38;87.66;100871.75;5051470;28;20523;-63
2020/12/16 05:06:08;;;;;;;26.02;13.70;;;;;;;8.24;87.70;100865.34;5035528;28;20056;-64
2020/12/16 05:08:35;;;;;;;23.50;13.38;;;;;;;8.21;87.10;100861.22;5052742;28;20056;-65
2020/12/16 05:11:02;;;;;;;26.88;14.70;;;;;;;8.27;87.52;100857.34;5052841;28;20049;-66
2020/12/16 05:13:29;;;;;;;21.88;13.32;;;;;;;8.30;87.67;100855.94;5035512;28;20093;-65
2020/12/16 05:16:01;;;;;;;22.10;13.57;;;;;;;8.41;87.02;100863.72;5053151;28;20053;-65
2020/12/16 05:18:28;;;;;;;26.50;14.07;;;;;;;8.13;87.96;100872.03;5052453;28;20056;-65
2020/12/16 05:20:57;;;;;;;20.73;12.93;;;;;;;8.15;88.16;100861.56;5053202;28;20053;-64
2020/12/16 05:23:26;;;;;;;23.30;13.63;;;;;;;8.21;87.65;100860.41;5052969;28;20053;-62
2020/12/16 05:26:09;;;;;;;23.15;13.88;;;;;;;8.29;87.44;100870.75;5053073;28;20045;-65
2020/12/16 05:28:38;;;;;;;24.13;13.73;;;;;;;8.29;87.79;100857.03;5068171;28;20076;-64
2020/12/16 05:31:07;;;;;;;23.45;14.35;;;;;;;8.35;87.56;100851.19;5052888;28;20049;-63
2020/12/16 05:33:41;;;;;;;24.08;13.40;;;;;;;8.17;88.29;100846.47;5052605;28;20060;-61
2020/12/16 05:36:09;;;;;;;25.48;15.00;;;;;;;8.25;88.53;100845.84;5052558;28;20053;-66
2020/12/16 05:38:54;;;;;;;27.98;16.05;;;;;;;8.32;87.86;100846.28;5052743;28;20134;-64
2020/12/16 05:41:28;;;;;;;29.10;16.50;;;;;;;8.27;88.38;100846.34;5052552;28;20448;-65
2020/12/16 05:44:18;;;;;;;28.83;16.65;;;;;;;8.30;88.33;100850.47;5052923;28;20396;-66
2020/12/16 05:46:47;;;;;;;27.30;15.27;;;;;;;8.44;87.83;100843.91;5052108;28;20480;-64
2020/12/16 05:53:38;;;;;;;27.08;14.57;;;;;;;8.34;87.37;100833.09;5052716;28;20049;-64
2020/12/16 05:56:05;;;;;;;25.55;15.32;;;;;;;8.09;88.83;100827.09;5052673;28;20056;-62
2020/12/16 05:58:33;;;;;;;25.13;14.55;;;;;;;8.21;88.06;100830.22;5051279;28;20048;-64
2020/12/16 06:01:05;;;;;;;24.27;15.43;;;;;;;8.15;88.26;100826.75;5052792;28;20397;-63
2020/12/16 06:03:37;;;;;;;32.58;16.33;;;;;;;8.10;89.42;100834.22;5034295;28;20049;-65
2020/12/16 06:10:28;;;;;;;21.95;13.68;;;;;;;8.11;87.81;100836.66;5052133;28;20049;-62
2020/12/16 06:12:56;;;;;;;25.80;14.80;;;;;;;8.13;88.28;100839.94;5034725;28;20064;-64
2020/12/16 06:15:23;;;;;;;27.42;14.80;;;;;;;8.25;88.56;100845.84;5051101;28;20049;-63
2020/12/16 06:17:50;;;;;;;23.58;14.60;;;;;;;8.25;88.62;100854.06;5051695;28;20049;-65
2020/12/16 06:20:18;;;;;;;24.25;14.98;;;;;;;8.53;87.61;100847.63;5052086;28;20377;-64
2020/12/16 06:22:46;;;;;;;29.38;16.05;;;;;;;8.42;87.70;100851.63;5034425;28;20049;-63
2020/12/16 06:25:17;;;;;;;25.02;15.32;;;;;;;8.52;87.82;100857.00;5052266;28;20060;-64
2020/12/16 06:27:51;;;;;;;35.15;17.60;;;;;;;8.40;87.81;100847.56;5051986;28;20401;-63
2020/12/16 06:30:29;;;;;;;30.08;16.48;;;;;;;8.46;87.98;100849.09;5052663;28;20041;-62
2020/12/16 06:33:02;;;;;;;31.33;16.90;;;;;;;8.37;88.21;100837.19;5067232;28;20391;-64
2020/12/16 06:35:29;;;;;;;33.40;19.13;;;;;;;8.59;86.76;100846.47;5052314;28;20049;-66
2020/12/16 06:38:20;;;;;;;30.23;18.42;;;;;;;8.38;87.48;100847.03;5052002;28;20052;-62
2020/12/16 06:40:48;;;;;;;;;;;;;;;8.28;87.62;100844.44;5052570;28;20058;-61
2020/12/16 06:43:34;;;;;;;28.90;16.30;;;;;;;8.12;88.10;100851.19;5052555;28;19921;-64
2020/12/16 06:46:04;;;;;;;27.48;15.70;;;;;;;8.20;88.09;100845.88;5033935;28;20056;-65
2020/12/16 06:48:39;;;;;;;30.23;17.02;;;;;;;8.21;87.42;100852.19;5051984;28;20053;-63
2020/12/16 06:51:19;;;;;;;29.00;16.48;;;;;;;8.25;87.37;100848.56;5017251;28;20045;-63
2020/12/16 06:53:47;;;;;;;29.10;16.20;;;;;;;8.14;88.41;100848.97;5051034;28;20077;-62
2020/12/16 06:56:28;;;;;;;28.45;15.30;;;;;;;7.97;88.61;100841.22;5035958;28;20392;-64
2020/12/16 06:58:55;;;;;;;23.20;13.48;;;;;;;8.00;87.99;100841.44;5052120;28;20075;-63
2020/12/16 07:01:23;;;;;;;23.08;12.52;;;;;;;7.93;88.21;100843.72;5051386;28;20404;-64
2020/12/16 07:03:50;;;;;;;26.15;12.93;;;;;;;7.80;87.85;100843.63;5051528;28;20049;-63
2020/12/16 07:06:28;;;;;;;21.98;12.40;;;;;;;7.85;88.38;100844.41;5051990;28;20512;-64
2020/12/16 07:09:14;;;;;;;27.50;13.75;;;;;;;7.96;87.78;100834.13;5051659;28;20053;-64
2020/12/16 07:11:45;;;;;;;25.05;13.07;;;;;;;7.96;87.65;100836.88;5037723;28;20045;-65
2020/12/16 07:14:20;;;;;;;22.52;13.18;;;;;;;8.15;88.11;100839.63;5055805;28;20049;-62
2020/12/16 07:16:47;;;;;;;24.17;12.88;;;;;;;7.95;87.81;100847.00;5055637;28;20044;-62
2020/12/16 07:19:35;;;;;;;20.48;12.23;;;;;;;7.99;87.02;100842.56;5055295;28;20045;-60
2020/12/16 07:22:21;;;;;;;20.52;11.93;;;;;;;8.14;86.75;100844.31;5054899;28;20053;-66
2020/12/16 07:24:52;;;;;;;18.27;11.35;;;;;;;7.87;86.41;100847.66;5055321;28;20060;-65
2020/12/16 07:27:21;;;;;;;28.35;15.93;;;;;;;7.94;86.51;100839.06;5054934;28;20396;-62
2020/12/16 07:29:58;;;;;;;32.60;18.20;;;;;;;8.04;85.94;100833.47;5054387;28;20082;-61
2020/12/16 07:32:26;;;;;;;18.90;11.02;;;;;;;8.14;85.19;100830.59;5055413;28;20400;-62
2020/12/16 07:39:20;;;;;;;22.10;11.70;;;;;;;7.84;85.91;100839.19;5055093;28;20049;-60
2020/12/16 07:41:48;;;;;;;22.98;11.95;;;;;;;7.63;86.88;100846.03;5054112;28;20404;-62
2020/12/16 07:44:16;;;;;;;26.35;12.27;;;;;;;7.77;86.60;100841.47;5054368;28;20053;-61
2020/12/16 07:46:42;;;;;;;28.60;13.63;;;;;;;7.81;86.51;100832.38;5035087;28;20049;-64
2020/12/16 07:49:11;;;;;;;26.75;12.68;;;;;;;7.82;86.71;100838.69;5035454;28;20515;-62
2020/12/16 07:56:17;;;;;;;22.60;11.57;;;;;;;7.97;86.69;100842.06;5031637;28;20053;-61
2020/12/16 07:58:44;;;;;;;23.65;12.52;;;;;;;7.91;85.98;100836.94;5033759;28;20054;-62
2020/12/16 08:01:18;;;;;;;23.67;12.85;;;;;;;7.88;86.05;100838.31;5049670;28;20504;-63
2020/12/16 08:03:46;;;;;;;24.77;12.65;;;;;;;7.82;85.96;100834.00;5035090;28;20050;-62
2020/12/16 08:10:43;;;;;;;25.00;12.23;;;;;;;7.76;87.47;100842.56;5034125;28;20386;-62
2020/12/16 08:13:10;;;;;;;24.40;12.57;;;;;;;8.07;86.74;100848.53;5034861;28;20049;-68
2020/12/16 08:15:38;;;;;;;22.33;11.95;;;;;;;8.46;85.93;100847.19;5034640;28;20500;-66
2020/12/16 08:18:05;;;;;;;25.88;12.55;;;;;;;8.54;84.67;100849.25;5034185;28;20068;-67
2020/12/16 08:20:33;;;;;;;21.42;12.43;;;;;;;8.34;84.27;100860.53;5047986;28;20062;-66
2020/12/16 08:22:59;;;;;;;24.20;12.18;;;;;;;8.30;84.50;100856.75;5033676;28;20054;-65
2020/12/16 08:25:26;;;;;;;19.25;12.13;;;;;;;8.31;84.25;100850.16;5033990;28;20052;-65
2020/12/16 08:27:55;;;;;;;18.85;11.25;;;;;;;8.50;82.73;100855.66;5034450;28;20052;-62
2020/12/16 08:30:27;;;;;;;19.10;10.98;;;;;;;8.45;81.93;100845.56;5033662;28;20057;-66
2020/12/16 08:33:01;;;;;;;18.30;10.85;;;;;;;8.31;82.60;100836.44;5033318;28;20053;-61
2020/12/16 08:35:31;;;;;;;17.58;10.77;;;;;;;8.06;82.79;100831.25;5033518;28;20046;-63
2020/12/16 08:38:06;;;;;;;15.88;9.25;;;;;;;7.84;83.14;100836.47;5048468;28;20053;-58
2020/12/16 08:40:39;;;;;;;16.30;10.20;;;;;;;7.64;84.10;100831.19;5016728;28;20048;-64
2020/12/16 08:43:24;;;;;;;14.90;9.93;;;;;;;7.39;85.10;100842.44;5032513;28;20394;-63
2020/12/16 08:46:14;;;;;;;16.65;9.13;;;;;;;7.25;85.51;100841.50;5029749;28;20049;-63
2020/12/16 08:48:48;;;;;;;17.02;10.07;;;;;;;7.23;86.26;100851.91;5031392;28;20053;-64
2020/12/16 08:51:18;;;;;;;17.25;10.00;;;;;;;7.38;86.19;100844.34;5032138;28;20505;-63
2020/12/16 08:53:53;;;;;;;20.55;11.20;;;;;;;7.42;85.69;100836.38;5033846;28;20049;-63
2020/12/16 08:56:31;;;;;;;37.83;16.17;;;;;;;7.70;84.95;100832.78;5034526;28;20384;-63
2020/12/16 08:59:07;;;;;;;91.80;28.35;;;;;;;7.45;85.02;100822.09;5068578;28;20416;-63
2020/12/16 09:01:35;;;;;;;105.43;32.30;;;;;;;7.33;85.56;100825.22;5035060;28;20515;-63
2020/12/16 09:04:05;;;;;;;86.28;29.85;;;;;;;7.41;86.10;100834.75;5053079;28;20048;-62
2020/12/16 09:06:36;;;;;;;61.55;23.83;;;;;;;7.52;85.30;100839.84;5034332;28;20049;-62
2020/12/16 09:09:14;;;;;;;25.77;12.60;;;;;;;7.29;85.73;100842.53;5053123;28;20052;-60
2020/12/16 09:11:48;;;;;;;22.95;11.75;;;;;;;7.10;86.91;100847.91;5035776;28;20052;-63
2020/12/16 09:14:17;;;;;;;22.90;11.77;;;;;;;7.25;86.62;100850.53;5034094;28;20493;-62
2020/12/16 09:16:44;;;;;;;21.50;12.05;;;;;;;7.29;87.50;100850.75;5053875;28;20044;-65
2020/12/16 09:19:15;;;;;;;20.35;12.10;;;;;;;7.44;86.93;100862.41;5052616;28;20057;-61
2020/12/16 09:21:42;;;;;;;21.27;11.80;;;;;;;7.33;86.90;100858.13;5052641;28;20056;-61
2020/12/16 09:24:09;;;;;;;21.25;12.45;;;;;;;7.59;86.00;100854.00;5018266;28;20508;-62
2020/12/16 09:26:41;;;;;;;18.48;10.27;;;;;;;7.66;85.63;100854.47;5034277;28;20052;-61
2020/12/16 09:29:26;;;;;;;16.42;10.35;;;;;;;7.89;85.19;100852.84;5052709;28;20045;-62
2020/12/16 09:32:16;;;;;;;13.82;9.35;;;;;;;7.88;84.43;100846.53;5034024;28;20052;-62
2020/12/16 09:34:48;;;;;;;19.60;10.23;;;;;;;7.74;85.35;100842.88;5053274;28;20045;-63
2020/12/16 09:37:30;;;;;;;14.50;9.45;;;;;;;7.72;84.98;100839.59;5053063;28;20053;-63
2020/12/16 09:40:15;;;;;;;22.40;9.20;;;;;;;7.86;84.96;100840.53;5018054;28;20045;-62
2020/12/16 09:42:57;;;;;;;16.67;8.80;;;;;;;8.08;83.78;100847.41;5051827;28;20385;-65
2020/12/16 09:45:31;;;;;;;17.15;9.98;;;;;;;8.10;83.57;100847.94;5052301;28;20492;-61
2020/12/16 09:47:59;;;;;;;18.42;9.25;;;;;;;7.89;84.26;100847.38;5034476;28;20044;-62
2020/12/16 09:50:28;;;;;;;83.72;26.63;;;;;;;7.78;85.03;100835.69;5052049;28;20045;-62
2020/12/16 09:53:03;;;;;;;92.30;27.60;;;;;;;7.92;84.42;100844.84;5052179;28;20049;-62
2020/12/16 09:55:36;;;;;;;78.50;24.90;;;;;;;7.97;84.56;100838.47;5051948;28;20048;-62
2020/12/16 09:58:12;;;;;;;32.92;14.23;;;;;;;7.90;84.51;100846.25;5052169;28;20052;-64
2020/12/16 10:00:40;;;;;;;23.95;12.75;;;;;;;8.14;83.67;100835.25;5051739;28;20053;-63
2020/12/16 10:03:09;;;;;;;19.25;10.00;;;;;;;7.84;84.09;100833.72;5051501;28;20053;-62
2020/12/16 10:05:37;;;;;;;18.23;9.60;;;;;;;7.76;85.09;100839.81;5052193;28;20056;-64
2020/12/16 10:08:11;;;;;;;24.02;9.50;;;;;;;7.96;84.91;100836.88;5051619;28;20380;-63
2020/12/16 10:10:39;;;;;;;18.13;8.40;;;;;;;7.97;84.95;100830.25;5051331;28;20048;-64
2020/12/16 10:13:07;;;;;;;15.50;8.07;;;;;;;8.05;84.59;100837.84;5050942;28;20049;-61
2020/12/16 10:15:35;;;;;;;12.40;7.95;;;;;;;7.99;84.70;100839.84;5051627;28;20546;-64
2020/12/16 10:18:03;;;;;;;16.15;8.35;;;;;;;8.00;85.13;100844.19;5052041;28;20052;-61
2020/12/16 10:20:31;;;;;;;17.88;9.65;;;;;;;8.02;85.72;100836.50;5051862;28;20041;-64
2020/12/16 10:23:00;;;;;;;17.05;9.07;;;;;;;7.99;85.25;100830.78;5052374;28;20057;-62
2020/12/16 10:25:27;;;;;;;15.70;9.07;;;;;;;8.25;84.57;100836.78;5052631;28;20056;-63
2020/12/16 10:27:54;;;;;;;15.82;8.63;;;;;;;8.25;84.93;100836.78;5051543;28;20053;-64
2020/12/16 10:30:26;;;;;;;16.42;8.45;;;;;;;8.21;85.24;100828.28;5051210;28;20507;-65
2020/12/16 10:32:53;;;;;;;17.35;9.50;;;;;;;8.36;84.71;100830.03;5051353;28;20057;-65
2020/12/16 10:35:21;;;;;;;18.70;9.85;;;;;;;8.47;84.65;100826.06;5050639;28;20316;-66
2020/12/16 10:37:48;;;;;;;17.70;9.13;;;;;;;8.28;85.18;100823.28;5051297;28;20397;-66
2020/12/16 10:40:15;;;;;;;18.40;9.93;;;;;;;8.42;84.86;100812.41;5050575;28;20064;-63
2020/12/16 10:42:43;;;;;;;18.35;10.15;;;;;;;8.28;85.81;100822.50;5033277;28;20488;-62
2020/12/16 10:45:10;;;;;;;41.85;15.77;;;;;;;8.25;85.79;100814.81;5053523;28;20514;-65
2020/12/16 10:47:37;;;;;;;38.35;14.43;;;;;;;8.29;86.27;100821.38;5054459;28;20067;-66
2020/12/16 10:50:05;;;;;;;21.58;10.43;;;;;;;8.42;85.92;100824.19;5053852;28;20045;-62
2020/12/16 10:52:32;;;;;;;18.42;10.18;;;;;;;8.37;85.93;100820.72;5054579;28;20045;-65
2020/12/16 10:54:59;;;;;;;18.65;9.90;;;;;;;8.38;86.32;100814.09;5053525;28;20436;-63
2020/12/16 10:57:28;;;;;;;18.92;9.50;;;;;;;8.57;86.38;100817.66;5054824;28;20060;-66
2020/12/16 10:59:55;;;;;;;20.38;9.93;;;;;;;8.56;85.85;100833.31;5021009;28;20049;-62
2020/12/16 11:02:27;;;;;;;21.48;10.23;;;;;;;8.52;85.86;100821.31;5054988;28;20056;-66
2020/12/16 11:05:03;;;;;;;21.50;10.02;;;;;;;8.66;85.59;100808.47;5023780;28;20529;-64
2020/12/16 11:07:34;;;;;;;15.30;9.48;;;;;;;8.72;86.08;100825.66;5054407;28;20056;-66
2020/12/16 11:10:05;;;;;;;14.65;9.52;;;;;;;8.74;85.55;100824.25;5054221;28;20400;-69
2020/12/16 11:12:34;;;;;;;18.42;9.88;;;;;;;8.85;85.29;100824.91;5054985;28;20067;-64
2020/12/16 11:15:06;;;;;;;17.90;10.40;;;;;;;8.85;84.88;100823.00;5054062;28;20056;-60
2020/12/16 11:17:33;;;;;;;13.30;8.90;;;;;;;9.02;84.26;100827.91;5037134;28;20060;-66
2020/12/16 11:20:01;;;;;;;14.25;8.73;;;;;;;9.10;83.83;100814.31;5054556;28;20056;-64
2020/12/16 11:22:29;;;;;;;13.80;9.35;;;;;;;8.98;84.60;100815.88;5053760;28;20060;-65
2020/12/16 11:24:56;;;;;;;13.35;9.43;;;;;;;9.12;84.13;100813.22;5054527;28;20389;-65
2020/12/16 11:27:23;;;;;;;17.25;9.63;;;;;;;9.35;83.38;100810.28;5053570;28;20382;-62
2020/12/16 11:29:50;;;;;;;16.42;11.23;;;;;;;9.31;83.27;100801.00;5052757;28;20080;-67
2020/12/16 11:32:17;;;;;;;13.25;8.95;;;;;;;9.43;82.68;100795.03;5054202;28;20048;-64
2020/12/16 11:34:45;;;;;;;17.65;10.30;;;;;;;9.50;82.54;100777.00;5036553;28;20052;-66
2020/12/16 11:37:14;;;;;;;13.63;9.07;;;;;;;9.48;82.17;100776.53;5052943;28;20049;-66
2020/12/16 11:39:42;;;;;;;13.73;9.10;;;;;;;9.44;82.19;100780.16;5053612;28;20052;-65
2020/12/16 11:42:16;;;;;;;13.10;8.55;;;;;;;9.42;82.72;100785.16;5054108;28;20059;-66
2020/12/16 11:44:43;;;;;;;14.65;9.00;;;;;;;9.54;82.49;100796.44;5053717;28;20053;-67
2020/12/16 11:47:11;;;;;;;13.68;8.90;;;;;;;9.56;82.53;100780.47;5053919;28;20060;-66
2020/12/16 11:49:43;;;;;;;14.55;8.77;;;;;;;9.47;83.06;100776.78;5053556;28;20052;-64
2020/12/16 11:52:10;;;;;;;11.23;7.55;;;;;;;9.61;83.16;100778.44;5053454;28;20061;-63
2020/12/16 11:54:38;;;;;;;16.80;11.40;;;;;;;10.09;83.38;100779.66;5053750;28;20056;-64
2020/12/16 11:57:05;;;;;;;11.52;8.07;;;;;;;10.52;79.58;100777.31;5052624;28;20389;-65
2020/12/16 11:59:35;;;;;;;13.35;7.72;;;;;;;10.59;79.95;100771.34;5050816;28;20536;-65
2020/12/16 12:02:03;;;;;;;12.10;7.35;;;;;;;10.71;79.94;100772.44;5052801;28;20068;-64
2020/12/16 12:04:49;;;;;;;12.85;7.53;;;;;;;10.62;78.83;100771.53;5060541;28;20056;-63
2020/12/16 12:07:16;;;;;;;11.00;6.82;;;;;;;10.61;78.33;100767.16;5052213;28;20052;-64
2020/12/16 12:09:46;;;;;;;10.75;6.90;;;;;;;10.57;78.56;100773.59;5053487;28;20507;-64
2020/12/16 12:12:13;;;;;;;12.02;7.00;;;;;;;10.57;78.42;100766.16;5053230;28;20404;-65
2020/12/16 12:14:42;;;;;;;12.20;6.40;;;;;;;10.46;78.82;100767.50;5053420;28;20049;-64